sensor_id;sensor_type;location;lat;lon;timestamp;P1;durP1;ratioP1;P2;durP2;ratioP2
25988;SDS011;13778;48.236;9.894;2023-12-20T00:02:27;5.10;;;3.20;;
25988;SDS011;13778;48.236;9.894;2023-12-20T00:05:17;5.05;;;3.35;;
25988;SDS011;13778;48.236;9.894;2023-12-20T00:08:09;5.63;;;3.67;;
25988;SDS011;13778;48.236;9.894;2023-12-20T00:10:59;4.90;;;3.75;;
25988;SDS011;13778;48.236;9.894;2023-12-20T00:13:50;4.50;;;3.20;;
25988;SDS011;13778;48.236;9.894;2023-12-20T00:16:40;5.30;;;3.47;;
25988;SDS011;13778;48.236;9.894;2023-12-20T00:19:31;5.35;;;3.42;;
25988;SDS011;13778;48.236;9.894;2023-12-20T00:22:21;6.03;;;3.40;;
25988;SDS011;13778;48.236;9.894;2023-12-20T00:25:13;4.82;;;3.45;;
25988;SDS011;13778;48.236;9.894;2023-12-20T00:28:03;3.80;;;3.25;;
25988;SDS011;13778;48.236;9.894;2023-12-20T00:30:54;3.00;;;2.70;;
25988;SDS011;13778;48.236;9.894;2023-12-20T00:33:44;4.30;;;3.35;;
25988;SDS011;13778;48.236;9.894;2023-12-20T00:36:36;4.10;;;3.15;;
25988;SDS011;13778;48.236;9.894;2023-12-20T00:39:26;6.82;;;4.07;;
25988;SDS011;13778;48.236;9.894;2023-12-20T00:42:18;5.45;;;3.40;;
25988;SDS011;13778;48.236;9.894;2023-12-20T00:45:08;4.75;;;3.72;;
25988;SDS011;13778;48.236;9.894;2023-12-20T00:47:59;4.50;;;3.53;;
25988;SDS011;13778;48.236;9.894;2023-12-20T00:50:49;6.25;;;3.60;;
25988;SDS011;13778;48.236;9.894;2023-12-20T00:53:40;6.25;;;3.55;;
25988;SDS011;13778;48.236;9.894;2023-12-20T00:56:30;3.95;;;3.55;;
25988;SDS011;13778;48.236;9.894;2023-12-20T00:59:22;5.55;;;3.45;;
25988;SDS011;13778;48.236;9.894;2023-12-20T01:02:13;3.47;;;3.00;;
25988;SDS011;13778;48.236;9.894;2023-12-20T01:05:03;4.95;;;3.40;;
25988;SDS011;13778;48.236;9.894;2023-12-20T01:07:54;3.50;;;2.83;;
25988;SDS011;13778;48.236;9.894;2023-12-20T01:10:44;3.95;;;2.90;;
25988;SDS011;13778;48.236;9.894;2023-12-20T01:13:36;3.70;;;2.80;;
25988;SDS011;13778;48.236;9.894;2023-12-20T01:16:28;7.78;;;3.13;;
25988;SDS011;13778;48.236;9.894;2023-12-20T01:19:18;5.68;;;3.33;;
25988;SDS011;13778;48.236;9.894;2023-12-20T01:22:09;3.53;;;3.05;;
25988;SDS011;13778;48.236;9.894;2023-12-20T01:24:59;3.75;;;3.03;;
25988;SDS011;13778;48.236;9.894;2023-12-20T01:30:41;6.68;;;3.00;;
25988;SDS011;13778;48.236;9.894;2023-12-20T01:33:33;4.10;;;3.22;;
25988;SDS011;13778;48.236;9.894;2023-12-20T01:36:24;4.28;;;3.25;;
25988;SDS011;13778;48.236;9.894;2023-12-20T01:39:14;4.28;;;3.40;;
25988;SDS011;13778;48.236;9.894;2023-12-20T01:42:05;5.32;;;3.45;;
25988;SDS011;13778;48.236;9.894;2023-12-20T01:44:55;4.05;;;3.05;;
25988;SDS011;13778;48.236;9.894;2023-12-20T01:47:46;3.85;;;2.72;;
25988;SDS011;13778;48.236;9.894;2023-12-20T01:50:38;4.70;;;3.70;;
25988;SDS011;13778;48.236;9.894;2023-12-20T01:56:18;5.78;;;3.60;;
25988;SDS011;13778;48.236;9.894;2023-12-20T01:59:09;4.72;;;3.53;;
25988;SDS011;13778;48.236;9.894;2023-12-20T02:01:59;4.93;;;3.50;;
25988;SDS011;13778;48.236;9.894;2023-12-20T02:04:50;5.00;;;3.70;;
25988;SDS011;13778;48.236;9.894;2023-12-20T02:07:42;3.95;;;3.25;;
25988;SDS011;13778;48.236;9.894;2023-12-20T02:13:22;5.70;;;3.55;;
25988;SDS011;13778;48.236;9.894;2023-12-20T02:16:13;5.80;;;4.05;;
25988;SDS011;13778;48.236;9.894;2023-12-20T02:19:03;4.05;;;3.08;;
25988;SDS011;13778;48.236;9.894;2023-12-20T02:22:05;4.60;;;3.25;;
25988;SDS011;13778;48.236;9.894;2023-12-20T02:24:56;4.50;;;3.60;;
25988;SDS011;13778;48.236;9.894;2023-12-20T02:27:46;4.68;;;3.45;;
25988;SDS011;13778;48.236;9.894;2023-12-20T02:30:37;7.38;;;3.88;;
25988;SDS011;13778;48.236;9.894;2023-12-20T02:33:27;4.63;;;3.53;;
25988;SDS011;13778;48.236;9.894;2023-12-20T02:36:18;6.32;;;4.13;;
25988;SDS011;13778;48.236;9.894;2023-12-20T02:39:10;4.82;;;3.20;;
25988;SDS011;13778;48.236;9.894;2023-12-20T02:42:00;8.02;;;4.78;;
25988;SDS011;13778;48.236;9.894;2023-12-20T02:44:50;4.57;;;3.90;;
25988;SDS011;13778;48.236;9.894;2023-12-20T02:47:41;6.28;;;4.15;;
25988;SDS011;13778;48.236;9.894;2023-12-20T02:50:31;5.18;;;3.95;;
25988;SDS011;13778;48.236;9.894;2023-12-20T02:53:22;5.45;;;3.60;;
25988;SDS011;13778;48.236;9.894;2023-12-20T02:56:14;5.45;;;4.35;;
25988;SDS011;13778;48.236;9.894;2023-12-20T02:59:04;6.00;;;3.63;;
25988;SDS011;13778;48.236;9.894;2023-12-20T03:01:57;5.15;;;3.50;;
25988;SDS011;13778;48.236;9.894;2023-12-20T03:04:48;4.38;;;3.45;;
25988;SDS011;13778;48.236;9.894;2023-12-20T03:07:38;5.05;;;3.88;;
25988;SDS011;13778;48.236;9.894;2023-12-20T03:10:29;5.47;;;3.65;;
25988;SDS011;13778;48.236;9.894;2023-12-20T03:13:21;4.65;;;3.38;;
25988;SDS011;13778;48.236;9.894;2023-12-20T03:16:11;5.55;;;3.00;;
25988;SDS011;13778;48.236;9.894;2023-12-20T03:19:02;3.90;;;2.97;;
25988;SDS011;13778;48.236;9.894;2023-12-20T03:21:53;3.95;;;3.28;;
25988;SDS011;13778;48.236;9.894;2023-12-20T03:24:43;3.70;;;3.30;;
25988;SDS011;13778;48.236;9.894;2023-12-20T03:27:33;4.57;;;3.63;;
25988;SDS011;13778;48.236;9.894;2023-12-20T03:30:25;3.88;;;3.38;;
25988;SDS011;13778;48.236;9.894;2023-12-20T03:33:16;3.95;;;3.40;;
25988;SDS011;13778;48.236;9.894;2023-12-20T03:36:06;5.90;;;3.17;;
25988;SDS011;13778;48.236;9.894;2023-12-20T03:38:57;3.75;;;3.30;;
25988;SDS011;13778;48.236;9.894;2023-12-20T03:41:47;3.72;;;3.35;;
25988;SDS011;13778;48.236;9.894;2023-12-20T03:44:38;4.85;;;2.70;;
25988;SDS011;13778;48.236;9.894;2023-12-20T03:47:30;3.92;;;3.53;;
25988;SDS011;13778;48.236;9.894;2023-12-20T03:50:21;4.47;;;4.07;;
25988;SDS011;13778;48.236;9.894;2023-12-20T03:53:12;8.00;;;7.30;;
25988;SDS011;13778;48.236;9.894;2023-12-20T03:56:02;5.57;;;4.00;;
25988;SDS011;13778;48.236;9.894;2023-12-20T03:58:53;7.38;;;4.80;;
25988;SDS011;13778;48.236;9.894;2023-12-20T04:01:43;4.40;;;3.33;;
25988;SDS011;13778;48.236;9.894;2023-12-20T04:04:36;3.85;;;3.05;;
25988;SDS011;13778;48.236;9.894;2023-12-20T04:10:16;3.95;;;3.33;;
25988;SDS011;13778;48.236;9.894;2023-12-20T04:13:07;4.25;;;2.40;;
25988;SDS011;13778;48.236;9.894;2023-12-20T04:15:57;4.07;;;2.38;;
25988;SDS011;13778;48.236;9.894;2023-12-20T04:18:48;4.47;;;2.60;;
25988;SDS011;13778;48.236;9.894;2023-12-20T04:21:40;2.28;;;1.73;;
25988;SDS011;13778;48.236;9.894;2023-12-20T04:24:30;3.28;;;2.28;;
25988;SDS011;13778;48.236;9.894;2023-12-20T04:27:21;2.97;;;2.10;;
25988;SDS011;13778;48.236;9.894;2023-12-20T04:30:12;2.35;;;2.15;;
25988;SDS011;13778;48.236;9.894;2023-12-20T04:33:02;4.85;;;3.97;;
25988;SDS011;13778;48.236;9.894;2023-12-20T04:35:53;5.13;;;4.00;;
25988;SDS011;13778;48.236;9.894;2023-12-20T04:38:44;3.65;;;2.00;;
25988;SDS011;13778;48.236;9.894;2023-12-20T04:44:25;4.30;;;2.40;;
25988;SDS011;13778;48.236;9.894;2023-12-20T04:47:15;5.32;;;2.17;;
25988;SDS011;13778;48.236;9.894;2023-12-20T04:50:06;2.97;;;2.13;;
25988;SDS011;13778;48.236;9.894;2023-12-20T04:52:57;2.60;;;1.92;;
25988;SDS011;13778;48.236;9.894;2023-12-20T04:55:49;2.80;;;2.40;;
25988;SDS011;13778;48.236;9.894;2023-12-20T04:58:39;5.63;;;2.75;;
25988;SDS011;13778;48.236;9.894;2023-12-20T05:01:30;3.03;;;2.42;;
25988;SDS011;13778;48.236;9.894;2023-12-20T05:04:21;4.53;;;2.53;;
25988;SDS011;13778;48.236;9.894;2023-12-20T05:07:11;5.50;;;2.75;;
25988;SDS011;13778;48.236;9.894;2023-12-20T05:10:02;4.55;;;2.88;;
25988;SDS011;13778;48.236;9.894;2023-12-20T05:12:54;5.50;;;3.35;;
25988;SDS011;13778;48.236;9.894;2023-12-20T05:18:35;4.45;;;2.60;;
25988;SDS011;13778;48.236;9.894;2023-12-20T05:21:25;6.05;;;3.30;;
25988;SDS011;13778;48.236;9.894;2023-12-20T05:24:16;4.15;;;2.78;;
25988;SDS011;13778;48.236;9.894;2023-12-20T05:27:06;3.20;;;2.90;;
25988;SDS011;13778;48.236;9.894;2023-12-20T05:29:58;2.55;;;2.35;;
25988;SDS011;13778;48.236;9.894;2023-12-20T05:32:49;4.93;;;3.17;;
25988;SDS011;13778;48.236;9.894;2023-12-20T05:35:39;5.43;;;3.30;;
25988;SDS011;13778;48.236;9.894;2023-12-20T05:38:30;4.18;;;3.40;;
25988;SDS011;13778;48.236;9.894;2023-12-20T05:41:20;3.85;;;3.42;;
25988;SDS011;13778;48.236;9.894;2023-12-20T05:44:12;4.47;;;3.45;;
25988;SDS011;13778;48.236;9.894;2023-12-20T05:47:04;5.40;;;3.38;;
25988;SDS011;13778;48.236;9.894;2023-12-20T05:49:54;5.25;;;3.90;;
25988;SDS011;13778;48.236;9.894;2023-12-20T05:52:45;6.68;;;4.10;;
25988;SDS011;13778;48.236;9.894;2023-12-20T05:55:35;5.05;;;4.28;;
25988;SDS011;13778;48.236;9.894;2023-12-20T05:58:26;6.03;;;4.45;;
25988;SDS011;13778;48.236;9.894;2023-12-20T06:01:16;6.13;;;4.18;;
25988;SDS011;13778;48.236;9.894;2023-12-20T06:04:08;5.93;;;4.05;;
25988;SDS011;13778;48.236;9.894;2023-12-20T06:09:48;6.50;;;4.57;;
25988;SDS011;13778;48.236;9.894;2023-12-20T06:12:39;8.07;;;4.50;;
25988;SDS011;13778;48.236;9.894;2023-12-20T06:15:29;5.68;;;4.22;;
25988;SDS011;13778;48.236;9.894;2023-12-20T06:18:20;5.70;;;4.30;;
25988;SDS011;13778;48.236;9.894;2023-12-20T06:21:12;6.10;;;4.60;;
25988;SDS011;13778;48.236;9.894;2023-12-20T06:24:03;5.70;;;4.10;;
25988;SDS011;13778;48.236;9.894;2023-12-20T06:26:54;5.07;;;4.05;;
25988;SDS011;13778;48.236;9.894;2023-12-20T06:29:45;7.22;;;4.50;;
25988;SDS011;13778;48.236;9.894;2023-12-20T06:32:35;7.20;;;4.50;;
25988;SDS011;13778;48.236;9.894;2023-12-20T06:35:27;7.05;;;5.28;;
25988;SDS011;13778;48.236;9.894;2023-12-20T06:38:19;5.45;;;4.47;;
25988;SDS011;13778;48.236;9.894;2023-12-20T06:41:12;8.23;;;4.78;;
25988;SDS011;13778;48.236;9.894;2023-12-20T06:44:02;5.47;;;3.90;;
25988;SDS011;13778;48.236;9.894;2023-12-20T06:46:53;8.95;;;5.47;;
25988;SDS011;13778;48.236;9.894;2023-12-20T06:49:43;7.68;;;4.80;;
25988;SDS011;13778;48.236;9.894;2023-12-20T06:52:34;6.47;;;4.68;;
25988;SDS011;13778;48.236;9.894;2023-12-20T06:55:26;7.47;;;5.03;;
25988;SDS011;13778;48.236;9.894;2023-12-20T06:58:16;6.68;;;5.45;;
25988;SDS011;13778;48.236;9.894;2023-12-20T07:01:10;7.85;;;4.82;;
25988;SDS011;13778;48.236;9.894;2023-12-20T07:04:01;4.95;;;4.35;;
25988;SDS011;13778;48.236;9.894;2023-12-20T07:06:51;9.25;;;5.32;;
25988;SDS011;13778;48.236;9.894;2023-12-20T07:09:45;6.18;;;4.97;;
25988;SDS011;13778;48.236;9.894;2023-12-20T07:12:37;6.47;;;4.78;;
25988;SDS011;13778;48.236;9.894;2023-12-20T07:15:28;6.95;;;4.80;;
25988;SDS011;13778;48.236;9.894;2023-12-20T07:18:18;6.22;;;4.80;;
25988;SDS011;13778;48.236;9.894;2023-12-20T07:21:08;7.40;;;5.45;;
25988;SDS011;13778;48.236;9.894;2023-12-20T07:23:59;6.32;;;4.85;;
25988;SDS011;13778;48.236;9.894;2023-12-20T07:29:43;7.22;;;4.88;;
25988;SDS011;13778;48.236;9.894;2023-12-20T07:32:34;6.30;;;4.75;;
25988;SDS011;13778;48.236;9.894;2023-12-20T07:35:24;6.95;;;4.70;;
25988;SDS011;13778;48.236;9.894;2023-12-20T07:38:15;6.45;;;4.75;;
25988;SDS011;13778;48.236;9.894;2023-12-20T07:41:05;6.53;;;4.47;;
25988;SDS011;13778;48.236;9.894;2023-12-20T07:43:56;7.18;;;4.53;;
25988;SDS011;13778;48.236;9.894;2023-12-20T07:46:48;6.55;;;4.63;;
25988;SDS011;13778;48.236;9.894;2023-12-20T07:49:39;6.05;;;4.85;;
25988;SDS011;13778;48.236;9.894;2023-12-20T07:52:29;6.72;;;5.15;;
25988;SDS011;13778;48.236;9.894;2023-12-20T07:55:20;8.23;;;5.25;;
25988;SDS011;13778;48.236;9.894;2023-12-20T07:58:12;7.28;;;5.05;;
25988;SDS011;13778;48.236;9.894;2023-12-20T08:01:02;5.55;;;4.78;;
25988;SDS011;13778;48.236;9.894;2023-12-20T08:03:54;6.20;;;5.55;;
25988;SDS011;13778;48.236;9.894;2023-12-20T08:06:44;7.95;;;5.13;;
25988;SDS011;13778;48.236;9.894;2023-12-20T08:09:35;6.40;;;5.40;;
25988;SDS011;13778;48.236;9.894;2023-12-20T08:12:25;7.43;;;5.63;;
25988;SDS011;13778;48.236;9.894;2023-12-20T08:15:16;9.50;;;5.97;;
25988;SDS011;13778;48.236;9.894;2023-12-20T08:18:07;10.93;;;6.57;;
25988;SDS011;13778;48.236;9.894;2023-12-20T08:20:59;11.63;;;7.22;;
25988;SDS011;13778;48.236;9.894;2023-12-20T08:23:50;10.60;;;6.00;;
25988;SDS011;13778;48.236;9.894;2023-12-20T08:26:41;6.97;;;5.93;;
25988;SDS011;13778;48.236;9.894;2023-12-20T08:29:31;6.75;;;5.20;;
25988;SDS011;13778;48.236;9.894;2023-12-20T08:32:23;7.82;;;5.53;;
25988;SDS011;13778;48.236;9.894;2023-12-20T08:35:14;9.02;;;6.05;;
25988;SDS011;13778;48.236;9.894;2023-12-20T08:38:06;7.63;;;5.97;;
25988;SDS011;13778;48.236;9.894;2023-12-20T08:40:57;7.15;;;5.65;;
25988;SDS011;13778;48.236;9.894;2023-12-20T08:43:47;7.25;;;5.93;;
25988;SDS011;13778;48.236;9.894;2023-12-20T08:46:38;6.18;;;5.57;;
25988;SDS011;13778;48.236;9.894;2023-12-20T08:49:28;7.20;;;5.45;;
25988;SDS011;13778;48.236;9.894;2023-12-20T08:52:19;8.38;;;6.60;;
25988;SDS011;13778;48.236;9.894;2023-12-20T08:55:10;9.15;;;6.50;;
25988;SDS011;13778;48.236;9.894;2023-12-20T08:58:01;7.47;;;6.07;;
25988;SDS011;13778;48.236;9.894;2023-12-20T09:00:52;6.95;;;5.80;;
25988;SDS011;13778;48.236;9.894;2023-12-20T09:03:42;8.30;;;6.32;;
25988;SDS011;13778;48.236;9.894;2023-12-20T09:06:33;8.50;;;6.15;;
25988;SDS011;13778;48.236;9.894;2023-12-20T09:09:23;7.95;;;5.95;;
25988;SDS011;13778;48.236;9.894;2023-12-20T09:12:17;7.10;;;6.05;;
25988;SDS011;13778;48.236;9.894;2023-12-20T09:15:07;9.18;;;6.63;;
25988;SDS011;13778;48.236;9.894;2023-12-20T09:17:57;6.93;;;5.40;;
25988;SDS011;13778;48.236;9.894;2023-12-20T09:20:48;7.60;;;5.90;;
25988;SDS011;13778;48.236;9.894;2023-12-20T09:23:39;10.05;;;7.43;;
25988;SDS011;13778;48.236;9.894;2023-12-20T09:26:29;8.25;;;5.80;;
25988;SDS011;13778;48.236;9.894;2023-12-20T09:29:21;12.60;;;8.02;;
25988;SDS011;13778;48.236;9.894;2023-12-20T09:35:02;14.00;;;9.73;;
25988;SDS011;13778;48.236;9.894;2023-12-20T09:37:54;15.00;;;9.23;;
25988;SDS011;13778;48.236;9.894;2023-12-20T09:40:45;14.68;;;9.82;;
25988;SDS011;13778;48.236;9.894;2023-12-20T09:43:35;9.27;;;7.28;;
25988;SDS011;13778;48.236;9.894;2023-12-20T09:46:28;8.15;;;6.20;;
25988;SDS011;13778;48.236;9.894;2023-12-20T09:49:20;7.05;;;6.35;;
25988;SDS011;13778;48.236;9.894;2023-12-20T09:52:11;8.13;;;7.18;;
25988;SDS011;13778;48.236;9.894;2023-12-20T09:55:02;7.32;;;6.38;;
25988;SDS011;13778;48.236;9.894;2023-12-20T09:57:55;7.30;;;5.50;;
25988;SDS011;13778;48.236;9.894;2023-12-20T10:00:45;7.40;;;5.82;;
25988;SDS011;13778;48.236;9.894;2023-12-20T10:03:37;8.30;;;6.13;;
25988;SDS011;13778;48.236;9.894;2023-12-20T10:06:29;8.15;;;5.80;;
25988;SDS011;13778;48.236;9.894;2023-12-20T10:09:19;6.22;;;5.13;;
25988;SDS011;13778;48.236;9.894;2023-12-20T10:12:10;7.50;;;5.15;;
25988;SDS011;13778;48.236;9.894;2023-12-20T10:15:00;6.78;;;4.53;;
25988;SDS011;13778;48.236;9.894;2023-12-20T10:17:51;5.18;;;4.68;;
25988;SDS011;13778;48.236;9.894;2023-12-20T10:20:43;7.13;;;5.65;;
25988;SDS011;13778;48.236;9.894;2023-12-20T10:23:34;6.40;;;4.97;;
25988;SDS011;13778;48.236;9.894;2023-12-20T10:26:25;8.65;;;5.60;;
25988;SDS011;13778;48.236;9.894;2023-12-20T10:29:16;7.32;;;5.53;;
25988;SDS011;13778;48.236;9.894;2023-12-20T10:32:23;12.02;;;7.32;;
25988;SDS011;13778;48.236;9.894;2023-12-20T10:35:14;6.72;;;5.30;;
25988;SDS011;13778;48.236;9.894;2023-12-20T10:38:06;5.90;;;4.20;;
25988;SDS011;13778;48.236;9.894;2023-12-20T10:40:57;4.13;;;3.25;;
25988;SDS011;13778;48.236;9.894;2023-12-20T10:43:47;4.13;;;3.70;;
25988;SDS011;13778;48.236;9.894;2023-12-20T10:46:38;4.90;;;3.85;;
25988;SDS011;13778;48.236;9.894;2023-12-20T10:49:29;4.30;;;3.17;;
25988;SDS011;13778;48.236;9.894;2023-12-20T10:52:20;4.10;;;3.53;;
25988;SDS011;13778;48.236;9.894;2023-12-20T10:55:13;4.68;;;3.65;;
25988;SDS011;13778;48.236;9.894;2023-12-20T10:58:06;3.65;;;2.80;;
25988;SDS011;13778;48.236;9.894;2023-12-20T11:00:58;2.42;;;1.90;;
25988;SDS011;13778;48.236;9.894;2023-12-20T11:03:50;0.60;;;0.60;;
25988;SDS011;13778;48.236;9.894;2023-12-20T11:06:43;0.90;;;0.47;;
25988;SDS011;13778;48.236;9.894;2023-12-20T11:09:36;0.50;;;0.50;;
25988;SDS011;13778;48.236;9.894;2023-12-20T11:12:35;0.57;;;0.50;;
25988;SDS011;13778;48.236;9.894;2023-12-20T11:15:27;2.65;;;0.65;;
25988;SDS011;13778;48.236;9.894;2023-12-20T11:18:17;0.70;;;0.70;;
25988;SDS011;13778;48.236;9.894;2023-12-20T11:21:08;1.65;;;0.90;;
25988;SDS011;13778;48.236;9.894;2023-12-20T11:23:58;4.07;;;1.20;;
25988;SDS011;13778;48.236;9.894;2023-12-20T11:26:49;2.70;;;1.05;;
25988;SDS011;13778;48.236;9.894;2023-12-20T11:29:41;0.73;;;0.65;;
25988;SDS011;13778;48.236;9.894;2023-12-20T11:32:34;1.80;;;1.20;;
25988;SDS011;13778;48.236;9.894;2023-12-20T11:35:24;1.25;;;0.90;;
25988;SDS011;13778;48.236;9.894;2023-12-20T11:38:15;1.00;;;1.00;;
25988;SDS011;13778;48.236;9.894;2023-12-20T11:41:05;1.50;;;1.10;;
25988;SDS011;13778;48.236;9.894;2023-12-20T11:43:56;1.35;;;1.08;;
25988;SDS011;13778;48.236;9.894;2023-12-20T11:46:47;5.03;;;1.40;;
25988;SDS011;13778;48.236;9.894;2023-12-20T11:49:38;3.75;;;1.70;;
25988;SDS011;13778;48.236;9.894;2023-12-20T11:52:28;5.35;;;2.00;;
25988;SDS011;13778;48.236;9.894;2023-12-20T11:55:19;5.78;;;2.92;;
25988;SDS011;13778;48.236;9.894;2023-12-20T11:58:09;3.83;;;2.30;;
25988;SDS011;13778;48.236;9.894;2023-12-20T12:01:01;4.30;;;2.53;;
25988;SDS011;13778;48.236;9.894;2023-12-20T12:04:03;6.07;;;2.13;;
25988;SDS011;13778;48.236;9.894;2023-12-20T12:06:53;2.33;;;1.80;;
25988;SDS011;13778;48.236;9.894;2023-12-20T12:09:44;2.33;;;1.50;;
25988;SDS011;13778;48.236;9.894;2023-12-20T12:12:34;2.03;;;1.67;;
25988;SDS011;13778;48.236;9.894;2023-12-20T12:15:24;1.92;;;1.70;;
25988;SDS011;13778;48.236;9.894;2023-12-20T12:18:15;4.03;;;1.50;;
25988;SDS011;13778;48.236;9.894;2023-12-20T12:21:07;3.30;;;1.83;;
25988;SDS011;13778;48.236;9.894;2023-12-20T12:24:05;3.03;;;2.40;;
25988;SDS011;13778;48.236;9.894;2023-12-20T12:26:57;3.13;;;1.90;;
25988;SDS011;13778;48.236;9.894;2023-12-20T12:30:00;2.97;;;1.90;;
25988;SDS011;13778;48.236;9.894;2023-12-20T12:32:50;2.35;;;1.75;;
25988;SDS011;13778;48.236;9.894;2023-12-20T12:35:41;3.47;;;1.70;;
25988;SDS011;13778;48.236;9.894;2023-12-20T12:38:33;2.75;;;1.58;;
25988;SDS011;13778;48.236;9.894;2023-12-20T12:41:24;1.52;;;1.20;;
25988;SDS011;13778;48.236;9.894;2023-12-20T12:44:15;2.28;;;1.30;;
25988;SDS011;13778;48.236;9.894;2023-12-20T12:47:05;1.50;;;1.40;;
25988;SDS011;13778;48.236;9.894;2023-12-20T12:49:57;1.38;;;1.27;;
25988;SDS011;13778;48.236;9.894;2023-12-20T12:52:47;2.35;;;1.55;;
25988;SDS011;13778;48.236;9.894;2023-12-20T12:55:39;1.35;;;1.25;;
25988;SDS011;13778;48.236;9.894;2023-12-20T13:01:20;2.63;;;1.13;;
25988;SDS011;13778;48.236;9.894;2023-12-20T13:04:10;2.13;;;1.08;;
25988;SDS011;13778;48.236;9.894;2023-12-20T13:07:01;2.80;;;0.80;;
25988;SDS011;13778;48.236;9.894;2023-12-20T13:09:51;0.88;;;0.80;;
25988;SDS011;13778;48.236;9.894;2023-12-20T13:12:43;2.92;;;1.08;;
25988;SDS011;13778;48.236;9.894;2023-12-20T13:15:34;0.90;;;0.90;;
25988;SDS011;13778;48.236;9.894;2023-12-20T13:18:25;3.50;;;1.45;;
25988;SDS011;13778;48.236;9.894;2023-12-20T13:21:15;2.30;;;1.08;;
25988;SDS011;13778;48.236;9.894;2023-12-20T13:24:06;5.20;;;2.50;;
25988;SDS011;13778;48.236;9.894;2023-12-20T13:26:56;2.60;;;1.25;;
25988;SDS011;13778;48.236;9.894;2023-12-20T13:29:48;3.63;;;1.55;;
25988;SDS011;13778;48.236;9.894;2023-12-20T13:32:39;2.13;;;1.35;;
25988;SDS011;13778;48.236;9.894;2023-12-20T13:35:29;3.28;;;1.45;;
25988;SDS011;13778;48.236;9.894;2023-12-20T13:38:20;1.80;;;1.27;;
25988;SDS011;13778;48.236;9.894;2023-12-20T13:41:10;4.07;;;2.08;;
25988;SDS011;13778;48.236;9.894;2023-12-20T13:44:01;1.92;;;1.48;;
25988;SDS011;13778;48.236;9.894;2023-12-20T13:46:53;2.08;;;1.70;;
25988;SDS011;13778;48.236;9.894;2023-12-20T13:49:44;1.90;;;1.40;;
25988;SDS011;13778;48.236;9.894;2023-12-20T13:52:34;7.15;;;1.90;;
25988;SDS011;13778;48.236;9.894;2023-12-20T13:55:24;1.50;;;1.40;;
25988;SDS011;13778;48.236;9.894;2023-12-20T13:58:16;5.30;;;2.42;;
25988;SDS011;13778;48.236;9.894;2023-12-20T14:01:07;2.45;;;1.83;;
25988;SDS011;13778;48.236;9.894;2023-12-20T14:03:58;3.22;;;1.70;;
25988;SDS011;13778;48.236;9.894;2023-12-20T14:06:50;2.55;;;1.70;;
25988;SDS011;13778;48.236;9.894;2023-12-20T14:09:40;3.30;;;1.45;;
25988;SDS011;13778;48.236;9.894;2023-12-20T14:12:34;2.05;;;1.45;;
25988;SDS011;13778;48.236;9.894;2023-12-20T14:15:25;2.20;;;1.40;;
25988;SDS011;13778;48.236;9.894;2023-12-20T14:18:16;6.05;;;2.05;;
25988;SDS011;13778;48.236;9.894;2023-12-20T14:21:08;4.03;;;2.10;;
25988;SDS011;13778;48.236;9.894;2023-12-20T14:23:59;5.38;;;2.03;;
25988;SDS011;13778;48.236;9.894;2023-12-20T14:26:50;3.92;;;2.25;;
25988;SDS011;13778;48.236;9.894;2023-12-20T14:29:40;4.55;;;1.40;;
25988;SDS011;13778;48.236;9.894;2023-12-20T14:32:31;6.13;;;1.98;;
25988;SDS011;13778;48.236;9.894;2023-12-20T14:35:21;2.63;;;1.70;;
25988;SDS011;13778;48.236;9.894;2023-12-20T14:38:13;3.17;;;1.65;;
25988;SDS011;13778;48.236;9.894;2023-12-20T14:41:04;4.50;;;1.70;;
25988;SDS011;13778;48.236;9.894;2023-12-20T14:43:57;3.67;;;1.60;;
25988;SDS011;13778;48.236;9.894;2023-12-20T14:46:48;4.20;;;1.60;;
25988;SDS011;13778;48.236;9.894;2023-12-20T14:49:40;3.00;;;1.20;;
25988;SDS011;13778;48.236;9.894;2023-12-20T14:52:30;3.05;;;1.27;;
25988;SDS011;13778;48.236;9.894;2023-12-20T14:55:22;6.93;;;2.13;;
25988;SDS011;13778;48.236;9.894;2023-12-20T15:01:04;4.15;;;1.67;;
25988;SDS011;13778;48.236;9.894;2023-12-20T15:03:56;5.45;;;1.58;;
25988;SDS011;13778;48.236;9.894;2023-12-20T15:06:46;3.17;;;1.70;;
25988;SDS011;13778;48.236;9.894;2023-12-20T15:09:37;6.70;;;2.37;;
25988;SDS011;13778;48.236;9.894;2023-12-20T15:12:29;9.68;;;4.25;;
25988;SDS011;13778;48.236;9.894;2023-12-20T15:15:20;8.82;;;4.63;;
25988;SDS011;13778;48.236;9.894;2023-12-20T15:18:11;9.93;;;3.33;;
25988;SDS011;13778;48.236;9.894;2023-12-20T15:21:02;5.03;;;2.03;;
25988;SDS011;13778;48.236;9.894;2023-12-20T15:23:52;6.13;;;2.15;;
25988;SDS011;13778;48.236;9.894;2023-12-20T15:26:43;7.13;;;1.90;;
25988;SDS011;13778;48.236;9.894;2023-12-20T15:29:35;5.50;;;1.77;;
25988;SDS011;13778;48.236;9.894;2023-12-20T15:32:26;4.55;;;2.08;;
25988;SDS011;13778;48.236;9.894;2023-12-20T15:35:16;5.60;;;1.90;;
25988;SDS011;13778;48.236;9.894;2023-12-20T15:38:07;5.68;;;1.95;;
25988;SDS011;13778;48.236;9.894;2023-12-20T15:40:57;3.50;;;2.38;;
25988;SDS011;13778;48.236;9.894;2023-12-20T15:43:48;3.92;;;3.05;;
25988;SDS011;13778;48.236;9.894;2023-12-20T15:46:40;7.88;;;2.00;;
25988;SDS011;13778;48.236;9.894;2023-12-20T15:52:20;4.75;;;1.88;;
25988;SDS011;13778;48.236;9.894;2023-12-20T15:55:11;7.78;;;2.30;;
25988;SDS011;13778;48.236;9.894;2023-12-20T15:58:01;5.00;;;2.50;;
25988;SDS011;13778;48.236;9.894;2023-12-20T16:00:52;5.07;;;2.42;;
25988;SDS011;13778;48.236;9.894;2023-12-20T16:03:44;8.05;;;2.75;;
25988;SDS011;13778;48.236;9.894;2023-12-20T16:09:25;7.53;;;2.10;;
25988;SDS011;13778;48.236;9.894;2023-12-20T16:12:15;3.78;;;2.10;;
25988;SDS011;13778;48.236;9.894;2023-12-20T16:15:06;5.95;;;2.42;;
25988;SDS011;13778;48.236;9.894;2023-12-20T16:17:57;8.40;;;3.08;;
25988;SDS011;13778;48.236;9.894;2023-12-20T16:20:49;5.28;;;2.00;;
25988;SDS011;13778;48.236;9.894;2023-12-20T16:26:29;5.18;;;1.77;;
25988;SDS011;13778;48.236;9.894;2023-12-20T16:29:19;6.68;;;2.20;;
25988;SDS011;13778;48.236;9.894;2023-12-20T16:32:10;2.22;;;1.40;;
25988;SDS011;13778;48.236;9.894;2023-12-20T16:35:00;4.00;;;1.60;;
25988;SDS011;13778;48.236;9.894;2023-12-20T16:37:53;4.10;;;2.20;;
25988;SDS011;13778;48.236;9.894;2023-12-20T16:43:33;4.45;;;1.60;;
25988;SDS011;13778;48.236;9.894;2023-12-20T16:46:24;5.20;;;1.20;;
25988;SDS011;13778;48.236;9.894;2023-12-20T16:49:15;7.00;;;2.03;;
25988;SDS011;13778;48.236;9.894;2023-12-20T16:52:06;5.07;;;1.80;;
25988;SDS011;13778;48.236;9.894;2023-12-20T16:54:57;11.68;;;2.42;;
25988;SDS011;13778;48.236;9.894;2023-12-20T16:57:48;18.20;;;8.52;;
25988;SDS011;13778;48.236;9.894;2023-12-20T17:00:39;7.25;;;2.28;;
25988;SDS011;13778;48.236;9.894;2023-12-20T17:03:30;3.05;;;2.03;;
25988;SDS011;13778;48.236;9.894;2023-12-20T17:06:20;6.63;;;2.13;;
25988;SDS011;13778;48.236;9.894;2023-12-20T17:09:12;5.95;;;2.10;;
25988;SDS011;13778;48.236;9.894;2023-12-20T17:12:06;3.08;;;1.52;;
25988;SDS011;13778;48.236;9.894;2023-12-20T17:14:57;4.25;;;2.13;;
25988;SDS011;13778;48.236;9.894;2023-12-20T17:17:50;6.30;;;2.80;;
25988;SDS011;13778;48.236;9.894;2023-12-20T17:20:40;4.68;;;2.42;;
25988;SDS011;13778;48.236;9.894;2023-12-20T17:23:31;13.80;;;3.73;;
25988;SDS011;13778;48.236;9.894;2023-12-20T17:26:22;8.10;;;3.30;;
25988;SDS011;13778;48.236;9.894;2023-12-20T17:29:14;9.93;;;2.63;;
25988;SDS011;13778;48.236;9.894;2023-12-20T17:34:55;11.52;;;5.03;;
25988;SDS011;13778;48.236;9.894;2023-12-20T17:37:45;8.48;;;5.00;;
25988;SDS011;13778;48.236;9.894;2023-12-20T17:40:36;7.40;;;3.30;;
25988;SDS011;13778;48.236;9.894;2023-12-20T17:43:28;6.88;;;4.13;;
25988;SDS011;13778;48.236;9.894;2023-12-20T17:46:20;5.68;;;4.10;;
25988;SDS011;13778;48.236;9.894;2023-12-20T17:49:10;6.35;;;3.25;;
25988;SDS011;13778;48.236;9.894;2023-12-20T17:52:01;10.57;;;3.28;;
25988;SDS011;13778;48.236;9.894;2023-12-20T17:54:52;13.38;;;3.47;;
25988;SDS011;13778;48.236;9.894;2023-12-20T17:57:42;7.88;;;3.00;;